BOX613 RCTP-VOHS
Flight info
| Callsign | BOX613 |
|---|---|
| Flight time | 5h 59m |
| Altitude | 34000 |
| Route | CHALI1C CHALI T3 MKG A1 ANPOG R200 OLDID/N0496F341 R200 LAPUG/K0919S1040 R200 ZUH R473 POU A599 LXI/K0909S1100 W148 XSJ W146 GULOT A599 LINSO/N0492F360 A599 CTG B465 CEA Q11 SURUP W41 ANBAS VITUR8 |
| Aircraft | B77L/H-SDE1E2E3FGHIJ2J3J4J5M1RWXY/LB1D1 |
Departure
| Time | 2026-05-07 09:22 |
|---|---|
| Airport | Taiwan Taoyuan International Airport (RCTP) |
Arrival
| Time | 2026-05-07 15:22 |
|---|---|
| Airport | Rajiv Gandhi International Airport (VOHS) |
| Time | Latitude | Longitude | Altitude | Speed | Heading |
|---|---|---|---|---|---|
| 2026-05-07 07:22 | 25.09023 | 121.24313 | 105 ft | 0 kts | 139° |
| 2026-05-07 07:49 | 25.09023 | 121.24312 | 105 ft | 0 kts | 139° |
| 2026-05-07 08:01 | 25.09024 | 121.24312 | 105 ft | 0 kts | 139° |
| 2026-05-07 08:37 | 25.09024 | 121.24311 | 105 ft | 0 kts | 139° |
| 2026-05-07 08:46 | 25.09025 | 121.24311 | 105 ft | 0 kts | 139° |
| 2026-05-07 09:05 | 25.09027 | 121.24309 | 107 ft | 3 kts | 139° |
| 2026-05-07 09:06 | 25.09047 | 121.24290 | 104 ft | 4 kts | 139° |
| 2026-05-07 09:06 | 25.09068 | 121.24271 | 103 ft | 4 kts | 145° |
| 2026-05-07 09:06 | 25.09091 | 121.24257 | 104 ft | 4 kts | 165° |
| 2026-05-07 09:06 | 25.09117 | 121.24255 | 104 ft | 4 kts | 198° |
| 2026-05-07 09:07 | 25.09131 | 121.24263 | 106 ft | 1 kts | 229° |
| 2026-05-07 09:10 | 25.09122 | 121.24251 | 104 ft | 3 kts | 229° |
| 2026-05-07 09:10 | 25.09109 | 121.24235 | 108 ft | 3 kts | 229° |
| 2026-05-07 09:10 | 25.09092 | 121.24213 | 106 ft | 5 kts | 229° |
| 2026-05-07 09:10 | 25.09063 | 121.24176 | 106 ft | 7 kts | 229° |
| 2026-05-07 09:11 | 25.09024 | 121.24126 | 107 ft | 10 kts | 229° |
| 2026-05-07 09:11 | 25.08976 | 121.24064 | 106 ft | 11 kts | 229° |
| 2026-05-07 09:11 | 25.08926 | 121.24001 | 108 ft | 11 kts | 229° |
| 2026-05-07 09:11 | 25.08876 | 121.23939 | 106 ft | 11 kts | 229° |
| 2026-05-07 09:12 | 25.08826 | 121.23876 | 106 ft | 11 kts | 229° |
| 2026-05-07 09:12 | 25.08777 | 121.23813 | 106 ft | 11 kts | 229° |
| 2026-05-07 09:12 | 25.08728 | 121.23750 | 106 ft | 11 kts | 230° |
| 2026-05-07 09:12 | 25.08679 | 121.23687 | 107 ft | 11 kts | 229° |
| 2026-05-07 09:13 | 25.08629 | 121.23624 | 108 ft | 11 kts | 229° |
| 2026-05-07 09:13 | 25.08580 | 121.23561 | 109 ft | 11 kts | 229° |
| 2026-05-07 09:13 | 25.08531 | 121.23498 | 108 ft | 11 kts | 229° |
| 2026-05-07 09:13 | 25.08481 | 121.23435 | 106 ft | 11 kts | 229° |
| 2026-05-07 09:14 | 25.08432 | 121.23372 | 108 ft | 11 kts | 229° |
| 2026-05-07 09:14 | 25.08382 | 121.23310 | 106 ft | 11 kts | 229° |
| 2026-05-07 09:14 | 25.08333 | 121.23247 | 107 ft | 11 kts | 229° |
| 2026-05-07 09:14 | 25.08283 | 121.23184 | 108 ft | 11 kts | 229° |
| 2026-05-07 09:15 | 25.08234 | 121.23121 | 107 ft | 11 kts | 229° |
| 2026-05-07 09:15 | 25.08184 | 121.23058 | 106 ft | 11 kts | 229° |
| 2026-05-07 09:15 | 25.08135 | 121.22994 | 105 ft | 11 kts | 229° |
| 2026-05-07 09:15 | 25.08085 | 121.22932 | 105 ft | 11 kts | 228° |
| 2026-05-07 09:16 | 25.08036 | 121.22869 | 106 ft | 11 kts | 230° |
| 2026-05-07 09:16 | 25.07988 | 121.22805 | 105 ft | 11 kts | 230° |
| 2026-05-07 09:16 | 25.07937 | 121.22744 | 107 ft | 11 kts | 227° |
| 2026-05-07 09:16 | 25.07888 | 121.22680 | 106 ft | 11 kts | 230° |
| 2026-05-07 09:17 | 25.07839 | 121.22617 | 107 ft | 11 kts | 229° |
| 2026-05-07 09:17 | 25.07789 | 121.22554 | 107 ft | 11 kts | 229° |
| 2026-05-07 09:17 | 25.07740 | 121.22492 | 107 ft | 11 kts | 229° |
| 2026-05-07 09:17 | 25.07691 | 121.22430 | 107 ft | 11 kts | 229° |
| 2026-05-07 09:18 | 25.07641 | 121.22367 | 108 ft | 11 kts | 229° |
| 2026-05-07 09:18 | 25.07592 | 121.22304 | 107 ft | 11 kts | 229° |
| 2026-05-07 09:18 | 25.07542 | 121.22241 | 107 ft | 11 kts | 229° |
| 2026-05-07 09:18 | 25.07492 | 121.22179 | 107 ft | 11 kts | 229° |
| 2026-05-07 09:19 | 25.07443 | 121.22115 | 106 ft | 11 kts | 229° |
| 2026-05-07 09:19 | 25.07394 | 121.22052 | 107 ft | 11 kts | 229° |
| 2026-05-07 09:19 | 25.07345 | 121.21989 | 107 ft | 11 kts | 229° |
| 2026-05-07 09:19 | 25.07295 | 121.21927 | 107 ft | 11 kts | 229° |
| 2026-05-07 09:20 | 25.07246 | 121.21865 | 108 ft | 11 kts | 229° |
| 2026-05-07 09:20 | 25.07201 | 121.21808 | 107 ft | 9 kts | 229° |
| 2026-05-07 09:20 | 25.07183 | 121.21748 | 107 ft | 9 kts | 282° |
| 2026-05-07 09:20 | 25.07219 | 121.21697 | 108 ft | 9 kts | 319° |
| 2026-05-07 09:21 | 25.07264 | 121.21654 | 107 ft | 9 kts | 320° |
| 2026-05-07 09:21 | 25.07311 | 121.21625 | 107 ft | 7 kts | 4° |
| 2026-05-07 09:21 | 25.07345 | 121.21666 | 108 ft | 8 kts | 53° |
| 2026-05-07 09:21 | 25.07393 | 121.21729 | 107 ft | 21 kts | 49° |
| 2026-05-07 09:22 | 25.07571 | 121.21955 | 107 ft | 68 kts | 49° |
| 2026-05-07 09:22 | 25.08040 | 121.22551 | 106 ft | 136 kts | 49° |
| 2026-05-07 09:22 | 25.08780 | 121.23492 | 159 ft | 182 kts | 49° |
| 2026-05-07 09:22 | 25.09601 | 121.24570 | 708 ft | 182 kts | 48° |
| 2026-05-07 09:23 | 25.10431 | 121.25639 | 1249 ft | 188 kts | 48° |
| 2026-05-07 09:23 | 25.11302 | 121.26739 | 1771 ft | 195 kts | 48° |
| 2026-05-07 09:23 | 25.12242 | 121.27930 | 2025 ft | 218 kts | 48° |
| 2026-05-07 09:23 | 25.13351 | 121.29224 | 2241 ft | 245 kts | 35° |
| 2026-05-07 09:24 | 25.14996 | 121.29873 | 2592 ft | 261 kts | 358° |
| 2026-05-07 09:24 | 25.16755 | 121.29343 | 3099 ft | 273 kts | 324° |
| 2026-05-07 09:24 | 25.18167 | 121.27839 | 3287 ft | 294 kts | 307° |
| 2026-05-07 09:24 | 25.19440 | 121.25954 | 3513 ft | 320 kts | 304° |
| 2026-05-07 09:25 | 25.20799 | 121.23921 | 4029 ft | 334 kts | 306° |
| 2026-05-07 09:25 | 25.22252 | 121.21884 | 4783 ft | 341 kts | 307° |
| 2026-05-07 09:25 | 25.23766 | 121.19868 | 5507 ft | 348 kts | 307° |
| 2026-05-07 09:25 | 25.25345 | 121.17804 | 6252 ft | 355 kts | 307° |
| 2026-05-07 09:26 | 25.26706 | 121.15555 | 6739 ft | 353 kts | 288° |
| 2026-05-07 09:26 | 25.27111 | 121.12915 | 7447 ft | 349 kts | 265° |
| 2026-05-07 09:26 | 25.26618 | 121.10298 | 8242 ft | 349 kts | 249° |
| 2026-05-07 09:26 | 25.25453 | 121.07948 | 8933 ft | 352 kts | 232° |
| 2026-05-07 09:27 | 25.23812 | 121.05906 | 9568 ft | 359 kts | 228° |
| 2026-05-07 09:27 | 25.22121 | 121.03842 | 10180 ft | 364 kts | 229° |
| 2026-05-07 09:27 | 25.18646 | 120.99706 | 11647 ft | 371 kts | 225° |
| 2026-05-07 09:28 | 25.16756 | 120.97750 | 12471 ft | 374 kts | 225° |
| 2026-05-07 09:28 | 25.14858 | 120.95776 | 13276 ft | 377 kts | 226° |
| 2026-05-07 09:28 | 25.12949 | 120.93757 | 14001 ft | 382 kts | 226° |
| 2026-05-07 09:28 | 25.11059 | 120.91730 | 14669 ft | 385 kts | 227° |
| 2026-05-07 09:29 | 25.09138 | 120.89655 | 15357 ft | 388 kts | 226° |
| 2026-05-07 09:29 | 25.07198 | 120.87559 | 16038 ft | 392 kts | 226° |
| 2026-05-07 09:29 | 25.05245 | 120.85448 | 16698 ft | 395 kts | 226° |
| 2026-05-07 09:29 | 25.03271 | 120.83316 | 17352 ft | 398 kts | 226° |
| 2026-05-07 09:30 | 25.01277 | 120.81167 | 18007 ft | 402 kts | 226° |
| 2026-05-07 09:30 | 24.99267 | 120.79001 | 18583 ft | 406 kts | 226° |
| 2026-05-07 09:30 | 24.97237 | 120.76814 | 19096 ft | 410 kts | 226° |
| 2026-05-07 09:30 | 24.95188 | 120.74609 | 19609 ft | 414 kts | 226° |
| 2026-05-07 09:31 | 24.93118 | 120.72383 | 20119 ft | 417 kts | 226° |
| 2026-05-07 09:31 | 24.91032 | 120.70141 | 20611 ft | 421 kts | 226° |
| 2026-05-07 09:31 | 24.88923 | 120.67875 | 21113 ft | 425 kts | 226° |
| 2026-05-07 09:31 | 24.86796 | 120.65591 | 21598 ft | 429 kts | 226° |
| 2026-05-07 09:32 | 24.84653 | 120.63291 | 22084 ft | 432 kts | 226° |
| 2026-05-07 09:32 | 24.82491 | 120.60971 | 22548 ft | 436 kts | 226° |
| 2026-05-07 09:32 | 24.80307 | 120.58629 | 23003 ft | 440 kts | 226° |
| 2026-05-07 09:32 | 24.78108 | 120.56271 | 23435 ft | 443 kts | 226° |
| 2026-05-07 09:33 | 24.75891 | 120.53896 | 23845 ft | 446 kts | 226° |
| 2026-05-07 09:33 | 24.73686 | 120.51536 | 24238 ft | 448 kts | 226° |
| 2026-05-07 09:33 | 24.71345 | 120.49266 | 24630 ft | 451 kts | 219° |
| 2026-05-07 09:33 | 24.68778 | 120.47248 | 24999 ft | 455 kts | 216° |
| 2026-05-07 09:34 | 24.66117 | 120.45337 | 25385 ft | 458 kts | 215° |
| 2026-05-07 09:34 | 24.63435 | 120.43433 | 25772 ft | 460 kts | 216° |
| 2026-05-07 09:34 | 24.61626 | 120.42128 | 26030 ft | 461 kts | 216° |
| 2026-05-07 09:34 | 24.58082 | 120.39511 | 26526 ft | 465 kts | 217° |
| 2026-05-07 09:35 | 24.55406 | 120.37497 | 26917 ft | 466 kts | 217° |
| 2026-05-07 09:35 | 24.52730 | 120.35469 | 27308 ft | 469 kts | 217° |
| 2026-05-07 09:35 | 24.50041 | 120.33430 | 27675 ft | 471 kts | 217° |
| 2026-05-07 09:35 | 24.48250 | 120.32075 | 27912 ft | 473 kts | 217° |
| 2026-05-07 09:36 | 24.44609 | 120.29325 | 28374 ft | 476 kts | 217° |
| 2026-05-07 09:36 | 24.41883 | 120.27231 | 28664 ft | 480 kts | 218° |
| 2026-05-07 09:36 | 24.40082 | 120.25834 | 28861 ft | 481 kts | 218° |
| 2026-05-07 09:36 | 24.37337 | 120.23697 | 29194 ft | 484 kts | 218° |
| 2026-05-07 09:37 | 24.33691 | 120.20861 | 29628 ft | 486 kts | 218° |
| 2026-05-07 09:37 | 24.31821 | 120.19410 | 29831 ft | 488 kts | 218° |
| 2026-05-07 09:37 | 24.28143 | 120.16563 | 30279 ft | 488 kts | 218° |
| 2026-05-07 09:37 | 24.25370 | 120.14421 | 30647 ft | 488 kts | 218° |
| 2026-05-07 09:38 | 24.22601 | 120.12283 | 31015 ft | 487 kts | 218° |
| 2026-05-07 09:38 | 24.20761 | 120.10861 | 31241 ft | 487 kts | 218° |
| 2026-05-07 09:38 | 24.17987 | 120.08720 | 31596 ft | 487 kts | 218° |
| 2026-05-07 09:38 | 24.15219 | 120.06585 | 31928 ft | 487 kts | 218° |
| 2026-05-07 09:39 | 24.12448 | 120.04444 | 32273 ft | 487 kts | 218° |
| 2026-05-07 09:39 | 24.09681 | 120.02303 | 32631 ft | 487 kts | 219° |
| 2026-05-07 09:39 | 24.06917 | 120.00162 | 32959 ft | 487 kts | 219° |
| 2026-05-07 09:39 | 24.04149 | 119.98021 | 33305 ft | 487 kts | 219° |
| 2026-05-07 09:40 | 24.01376 | 119.95878 | 33639 ft | 487 kts | 219° |
| 2026-05-07 09:40 | 23.98609 | 119.93742 | 33916 ft | 488 kts | 219° |
| 2026-05-07 09:40 | 23.95816 | 119.91589 | 33951 ft | 493 kts | 219° |
| 2026-05-07 09:41 | 23.90207 | 119.87272 | 33995 ft | 492 kts | 219° |
| 2026-05-07 09:41 | 23.84622 | 119.82978 | 33994 ft | 488 kts | 219° |
| 2026-05-07 09:42 | 23.79080 | 119.78719 | 33997 ft | 487 kts | 219° |
| 2026-05-07 09:42 | 23.73582 | 119.74495 | 33985 ft | 486 kts | 219° |
| 2026-05-07 09:43 | 23.68046 | 119.70247 | 33990 ft | 487 kts | 219° |
| 2026-05-07 09:43 | 23.62535 | 119.65926 | 33988 ft | 487 kts | 223° |
| 2026-05-07 09:44 | 23.57836 | 119.60661 | 34011 ft | 483 kts | 235° |
| 2026-05-07 09:44 | 23.54118 | 119.54595 | 33992 ft | 481 kts | 241° |
| 2026-05-07 09:45 | 23.50584 | 119.48382 | 33988 ft | 482 kts | 241° |
| 2026-05-07 09:45 | 23.47043 | 119.42219 | 34002 ft | 484 kts | 241° |
| 2026-05-07 09:46 | 23.43441 | 119.36008 | 34001 ft | 484 kts | 240° |
| 2026-05-07 09:46 | 23.39835 | 119.29813 | 34005 ft | 484 kts | 240° |
| 2026-05-07 09:47 | 23.36223 | 119.23615 | 34007 ft | 483 kts | 240° |
| 2026-05-07 09:47 | 23.32624 | 119.17445 | 33987 ft | 482 kts | 240° |
| 2026-05-07 09:48 | 23.29033 | 119.11294 | 34005 ft | 481 kts | 240° |
| 2026-05-07 09:48 | 23.25444 | 119.05154 | 33990 ft | 480 kts | 240° |
| 2026-05-07 09:49 | 23.21886 | 118.99073 | 34003 ft | 480 kts | 240° |
| 2026-05-07 09:49 | 23.18293 | 118.92939 | 34007 ft | 480 kts | 240° |
| 2026-05-07 09:50 | 23.14705 | 118.86824 | 33985 ft | 480 kts | 240° |
| 2026-05-07 09:50 | 23.11121 | 118.80721 | 34002 ft | 480 kts | 240° |
| 2026-05-07 09:51 | 23.07529 | 118.74612 | 33997 ft | 480 kts | 240° |
| 2026-05-07 09:51 | 23.03953 | 118.68537 | 34003 ft | 481 kts | 240° |
| 2026-05-07 09:52 | 23.00349 | 118.62419 | 33993 ft | 481 kts | 240° |
| 2026-05-07 09:52 | 22.96733 | 118.56289 | 34001 ft | 482 kts | 240° |
| 2026-05-07 09:53 | 22.93107 | 118.50165 | 34005 ft | 482 kts | 240° |
| 2026-05-07 09:53 | 22.89464 | 118.44043 | 34001 ft | 483 kts | 240° |
| 2026-05-07 09:54 | 22.85821 | 118.37928 | 33990 ft | 483 kts | 240° |
| 2026-05-07 09:54 | 22.82179 | 118.31815 | 34003 ft | 483 kts | 240° |
| 2026-05-07 09:55 | 22.78525 | 118.25689 | 34006 ft | 483 kts | 240° |
| 2026-05-07 09:55 | 22.74869 | 118.19565 | 34002 ft | 484 kts | 240° |
| 2026-05-07 09:56 | 22.71236 | 118.13488 | 34002 ft | 484 kts | 240° |
| 2026-05-07 09:56 | 22.67577 | 118.07372 | 34002 ft | 483 kts | 240° |
| 2026-05-07 09:57 | 22.64351 | 118.01070 | 33995 ft | 474 kts | 257° |
| 2026-05-07 09:57 | 22.63898 | 117.97574 | 34002 ft | 469 kts | 273° |
| 2026-05-07 09:57 | 22.64332 | 117.94087 | 34014 ft | 466 kts | 285° |
| 2026-05-07 09:58 | 22.66927 | 117.87687 | 33994 ft | 468 kts | 308° |
| 2026-05-07 09:58 | 22.71371 | 117.82607 | 34000 ft | 469 kts | 314° |
| 2026-05-07 09:59 | 22.75964 | 117.77554 | 34005 ft | 471 kts | 313° |
| 2026-05-07 09:59 | 22.80509 | 117.72408 | 34001 ft | 474 kts | 312° |
| 2026-05-07 10:00 | 22.85041 | 117.67205 | 33999 ft | 475 kts | 312° |
| 2026-05-07 10:00 | 22.89578 | 117.61989 | 33999 ft | 475 kts | 312° |
| 2026-05-07 10:01 | 22.94115 | 117.56775 | 33998 ft | 475 kts | 312° |
| 2026-05-07 10:01 | 22.98192 | 117.51229 | 33985 ft | 469 kts | 295° |
| 2026-05-07 10:01 | 22.99317 | 117.47919 | 34000 ft | 469 kts | 284° |
| 2026-05-07 10:02 | 22.99866 | 117.44483 | 33994 ft | 469 kts | 273° |
| 2026-05-07 10:02 | 22.99493 | 117.37392 | 33993 ft | 471 kts | 267° |
| 2026-05-07 10:03 | 22.99143 | 117.30294 | 33997 ft | 471 kts | 269° |
| 2026-05-07 10:03 | 22.98865 | 117.23183 | 33996 ft | 472 kts | 269° |
| 2026-05-07 10:04 | 22.98580 | 117.16058 | 33997 ft | 473 kts | 269° |
| 2026-05-07 10:04 | 22.98280 | 117.08926 | 33995 ft | 472 kts | 269° |
| 2026-05-07 10:05 | 22.97976 | 117.01854 | 33996 ft | 471 kts | 269° |
| 2026-05-07 10:05 | 22.97667 | 116.94754 | 33998 ft | 470 kts | 268° |
| 2026-05-07 10:06 | 22.97356 | 116.87670 | 33996 ft | 469 kts | 268° |
| 2026-05-07 10:06 | 22.97041 | 116.80602 | 33995 ft | 468 kts | 270° |
| 2026-05-07 10:07 | 22.96727 | 116.73559 | 33993 ft | 467 kts | 270° |
| 2026-05-07 10:07 | 22.96410 | 116.66532 | 33994 ft | 466 kts | 269° |
| 2026-05-07 10:08 | 22.96090 | 116.59506 | 33999 ft | 466 kts | 269° |
| 2026-05-07 10:08 | 22.95766 | 116.52483 | 33991 ft | 467 kts | 270° |
| 2026-05-07 10:09 | 22.95438 | 116.45406 | 34006 ft | 471 kts | 270° |
| 2026-05-07 10:09 | 22.95104 | 116.38285 | 34008 ft | 474 kts | 270° |
| 2026-05-07 10:10 | 22.94542 | 116.31129 | 34004 ft | 478 kts | 266° |
| 2026-05-07 10:10 | 22.93772 | 116.23942 | 34006 ft | 479 kts | 266° |
| 2026-05-07 10:11 | 22.93014 | 116.16813 | 33993 ft | 472 kts | 266° |
| 2026-05-07 10:11 | 22.92282 | 116.09738 | 33998 ft | 471 kts | 266° |
| 2026-05-07 10:12 | 22.91555 | 116.02728 | 34006 ft | 470 kts | 266° |
| 2026-05-07 10:12 | 22.90844 | 115.95674 | 34005 ft | 471 kts | 267° |
| 2026-05-07 10:13 | 22.90142 | 115.88618 | 34008 ft | 470 kts | 266° |
| 2026-05-07 10:13 | 22.89435 | 115.81565 | 34002 ft | 470 kts | 266° |
| 2026-05-07 10:14 | 22.88727 | 115.74515 | 34000 ft | 470 kts | 266° |
| 2026-05-07 10:14 | 22.88016 | 115.67460 | 33996 ft | 470 kts | 266° |
| 2026-05-07 10:15 | 22.87302 | 115.60412 | 33992 ft | 470 kts | 266° |
| 2026-05-07 10:15 | 22.86584 | 115.53356 | 34004 ft | 470 kts | 266° |
| 2026-05-07 10:16 | 22.85863 | 115.46300 | 34003 ft | 471 kts | 266° |
| 2026-05-07 10:16 | 22.85140 | 115.39254 | 33991 ft | 473 kts | 266° |
| 2026-05-07 10:17 | 22.84410 | 115.32170 | 34000 ft | 473 kts | 266° |
| 2026-05-07 10:17 | 22.83674 | 115.25064 | 33998 ft | 475 kts | 266° |
| 2026-05-07 10:18 | 22.82931 | 115.17919 | 34002 ft | 477 kts | 266° |
| 2026-05-07 10:18 | 22.82185 | 115.10778 | 33996 ft | 478 kts | 266° |
| 2026-05-07 10:19 | 22.81434 | 115.03615 | 33995 ft | 478 kts | 266° |
| 2026-05-07 10:19 | 22.80678 | 114.96442 | 33997 ft | 479 kts | 266° |
| 2026-05-07 10:20 | 22.79925 | 114.89324 | 33994 ft | 478 kts | 266° |
| 2026-05-07 10:20 | 22.79164 | 114.82163 | 33991 ft | 477 kts | 266° |
| 2026-05-07 10:21 | 22.78404 | 114.75036 | 33990 ft | 476 kts | 266° |
| 2026-05-07 10:21 | 22.77651 | 114.67912 | 33993 ft | 475 kts | 266° |
| 2026-05-07 10:22 | 22.76911 | 114.60863 | 33990 ft | 474 kts | 266° |
| 2026-05-07 10:22 | 22.76160 | 114.53762 | 33994 ft | 474 kts | 266° |
| 2026-05-07 10:23 | 22.75426 | 114.46653 | 33990 ft | 475 kts | 266° |
| 2026-05-07 10:23 | 22.74709 | 114.39543 | 33989 ft | 475 kts | 266° |
| 2026-05-07 10:24 | 22.73986 | 114.32423 | 33974 ft | 476 kts | 265° |
| 2026-05-07 10:24 | 22.73254 | 114.25279 | 33979 ft | 477 kts | 265° |
| 2026-05-07 10:25 | 22.72516 | 114.18120 | 33985 ft | 479 kts | 265° |
| 2026-05-07 10:25 | 22.71772 | 114.10930 | 33978 ft | 481 kts | 265° |
| 2026-05-07 10:26 | 22.70573 | 114.05064 | 33964 ft | 485 kts | 250° |
| 2026-05-07 10:26 | 22.68504 | 114.00746 | 33974 ft | 490 kts | 239° |
| 2026-05-07 10:26 | 22.66393 | 113.97834 | 33966 ft | 493 kts | 230° |
| 2026-05-07 10:27 | 22.61647 | 113.92438 | 33967 ft | 495 kts | 229° |
| 2026-05-07 10:27 | 22.57695 | 113.87939 | 33973 ft | 496 kts | 230° |
| 2026-05-07 10:28 | 22.52984 | 113.82481 | 33969 ft | 496 kts | 230° |
| 2026-05-07 10:28 | 22.48293 | 113.77006 | 33972 ft | 495 kts | 230° |
| 2026-05-07 10:29 | 22.43611 | 113.71549 | 33968 ft | 494 kts | 230° |
| 2026-05-07 10:29 | 22.38964 | 113.66144 | 33971 ft | 493 kts | 230° |
| 2026-05-07 10:30 | 22.34471 | 113.60591 | 33956 ft | 485 kts | 242° |
| 2026-05-07 10:30 | 22.33137 | 113.57282 | 33982 ft | 478 kts | 258° |
| 2026-05-07 10:30 | 22.32752 | 113.53743 | 33975 ft | 475 kts | 274° |
| 2026-05-07 10:30 | 22.33230 | 113.50239 | 33986 ft | 473 kts | 287° |
| 2026-05-07 10:31 | 22.34438 | 113.46936 | 33974 ft | 473 kts | 299° |
| 2026-05-07 10:31 | 22.36292 | 113.43998 | 33969 ft | 474 kts | 311° |
| 2026-05-07 10:31 | 22.41544 | 113.39738 | 33967 ft | 479 kts | 338° |
| 2026-05-07 10:32 | 22.47956 | 113.37654 | 33974 ft | 483 kts | 342° |
| 2026-05-07 10:32 | 22.54408 | 113.35571 | 33972 ft | 485 kts | 340° |
| 2026-05-07 10:33 | 22.60805 | 113.33359 | 33975 ft | 486 kts | 340° |
| 2026-05-07 10:33 | 22.67245 | 113.31123 | 33964 ft | 486 kts | 340° |
| 2026-05-07 10:34 | 22.73688 | 113.28895 | 33957 ft | 485 kts | 340° |
| 2026-05-07 10:34 | 22.80104 | 113.26674 | 33957 ft | 483 kts | 340° |
| 2026-05-07 10:35 | 22.86495 | 113.24457 | 33952 ft | 481 kts | 340° |
| 2026-05-07 10:35 | 22.92870 | 113.22244 | 33934 ft | 481 kts | 340° |
| 2026-05-07 10:36 | 22.98675 | 113.18930 | 33882 ft | 472 kts | 314° |
| 2026-05-07 10:36 | 23.00705 | 113.16147 | 33928 ft | 471 kts | 300° |
| 2026-05-07 10:36 | 23.02175 | 113.13021 | 33952 ft | 472 kts | 291° |
| 2026-05-07 10:37 | 23.03069 | 113.09602 | 33961 ft | 472 kts | 277° |
| 2026-05-07 10:37 | 23.03349 | 113.06107 | 33958 ft | 474 kts | 274° |
| 2026-05-07 10:37 | 23.03700 | 112.98962 | 33964 ft | 474 kts | 274° |
| 2026-05-07 10:38 | 23.04098 | 112.91823 | 33971 ft | 474 kts | 275° |
| 2026-05-07 10:38 | 23.04571 | 112.84679 | 33971 ft | 474 kts | 275° |
| 2026-05-07 10:39 | 23.05063 | 112.77548 | 33970 ft | 473 kts | 275° |
| 2026-05-07 10:39 | 23.05550 | 112.70420 | 33974 ft | 473 kts | 275° |
| 2026-05-07 10:40 | 23.06029 | 112.63289 | 33977 ft | 473 kts | 275° |
| 2026-05-07 10:40 | 23.06506 | 112.56156 | 33979 ft | 474 kts | 275° |
| 2026-05-07 10:41 | 23.07033 | 112.49024 | 33972 ft | 473 kts | 278° |
| 2026-05-07 10:41 | 23.08342 | 112.42043 | 33980 ft | 472 kts | 283° |
| 2026-05-07 10:42 | 23.09851 | 112.35101 | 33982 ft | 472 kts | 283° |
| 2026-05-07 10:42 | 23.11286 | 112.28366 | 33989 ft | 472 kts | 283° |
| 2026-05-07 10:43 | 23.12745 | 112.21415 | 33978 ft | 472 kts | 283° |
| 2026-05-07 10:43 | 23.14197 | 112.14465 | 33982 ft | 472 kts | 283° |
| 2026-05-07 10:44 | 23.15652 | 112.07496 | 33980 ft | 473 kts | 283° |
| 2026-05-07 10:44 | 23.17106 | 112.00513 | 33992 ft | 474 kts | 283° |
| 2026-05-07 10:45 | 23.18559 | 111.93521 | 33992 ft | 475 kts | 283° |
| 2026-05-07 10:45 | 23.20014 | 111.86503 | 33994 ft | 476 kts | 282° |
| 2026-05-07 10:46 | 23.21471 | 111.79515 | 33992 ft | 476 kts | 283° |
| 2026-05-07 10:46 | 23.22981 | 111.72506 | 33996 ft | 476 kts | 283° |
| 2026-05-07 10:47 | 23.24491 | 111.65496 | 33990 ft | 475 kts | 283° |
| 2026-05-07 10:47 | 23.25984 | 111.58511 | 33993 ft | 474 kts | 283° |
| 2026-05-07 10:48 | 23.27468 | 111.51534 | 33993 ft | 473 kts | 282° |
| 2026-05-07 10:48 | 23.28899 | 111.44553 | 34009 ft | 474 kts | 282° |
| 2026-05-07 10:49 | 23.29609 | 111.41039 | 34201 ft | 475 kts | 282° |
| 2026-05-07 10:49 | 23.30318 | 111.37532 | 34563 ft | 473 kts | 282° |
| 2026-05-07 10:49 | 23.31022 | 111.34056 | 34975 ft | 469 kts | 282° |
| 2026-05-07 10:49 | 23.31723 | 111.30597 | 35364 ft | 467 kts | 282° |
| 2026-05-07 10:50 | 23.32423 | 111.27150 | 35719 ft | 465 kts | 282° |
| 2026-05-07 10:50 | 23.33111 | 111.23755 | 35821 ft | 467 kts | 282° |
| 2026-05-07 10:50 | 23.34517 | 111.16802 | 35895 ft | 467 kts | 282° |
| 2026-05-07 10:51 | 23.35942 | 111.09920 | 35896 ft | 465 kts | 282° |
| 2026-05-07 10:51 | 23.37406 | 111.03126 | 35903 ft | 464 kts | 282° |
| 2026-05-07 10:52 | 23.38875 | 110.96280 | 35902 ft | 463 kts | 282° |
| 2026-05-07 10:52 | 23.40328 | 110.89451 | 35904 ft | 463 kts | 282° |
| 2026-05-07 10:53 | 23.41776 | 110.82623 | 35896 ft | 463 kts | 282° |
| 2026-05-07 10:53 | 23.43222 | 110.75787 | 35909 ft | 463 kts | 282° |
| 2026-05-07 10:54 | 23.44659 | 110.68945 | 35895 ft | 464 kts | 282° |
| 2026-05-07 10:54 | 23.46061 | 110.62075 | 35904 ft | 464 kts | 282° |
| 2026-05-07 10:55 | 23.47450 | 110.55243 | 35893 ft | 464 kts | 282° |
| 2026-05-07 10:55 | 23.48847 | 110.48378 | 35893 ft | 465 kts | 282° |
| 2026-05-07 10:56 | 23.50247 | 110.41496 | 35899 ft | 464 kts | 282° |
| 2026-05-07 10:56 | 23.51644 | 110.34626 | 35894 ft | 464 kts | 282° |
| 2026-05-07 10:57 | 23.53071 | 110.27810 | 35897 ft | 464 kts | 282° |
| 2026-05-07 10:57 | 23.54518 | 110.20952 | 35894 ft | 464 kts | 282° |
| 2026-05-07 10:58 | 23.55956 | 110.14095 | 35901 ft | 464 kts | 282° |
| 2026-05-07 10:58 | 23.57385 | 110.07249 | 35903 ft | 463 kts | 282° |
| 2026-05-07 10:59 | 23.58808 | 110.00406 | 35902 ft | 462 kts | 282° |
| 2026-05-07 10:59 | 23.60226 | 109.93578 | 35898 ft | 461 kts | 282° |
| 2026-05-07 11:00 | 23.61634 | 109.86757 | 35894 ft | 462 kts | 282° |
| 2026-05-07 11:00 | 23.63050 | 109.79927 | 35901 ft | 461 kts | 282° |
| 2026-05-07 11:01 | 23.64446 | 109.73161 | 35888 ft | 460 kts | 282° |
| 2026-05-07 11:01 | 23.65842 | 109.66371 | 35889 ft | 458 kts | 282° |
| 2026-05-07 11:02 | 23.67240 | 109.59557 | 35881 ft | 457 kts | 282° |
| 2026-05-07 11:02 | 23.68606 | 109.52838 | 35886 ft | 456 kts | 282° |
| 2026-05-07 11:03 | 23.69976 | 109.46078 | 35876 ft | 456 kts | 282° |
| 2026-05-07 11:03 | 23.71345 | 109.39315 | 35880 ft | 456 kts | 282° |
| 2026-05-07 11:04 | 23.72709 | 109.32558 | 35880 ft | 456 kts | 282° |
| 2026-05-07 11:04 | 23.74072 | 109.25792 | 35875 ft | 456 kts | 282° |
| 2026-05-07 11:05 | 23.75431 | 109.19035 | 35872 ft | 456 kts | 282° |
| 2026-05-07 11:05 | 23.76520 | 109.12217 | 35873 ft | 456 kts | 274° |
| 2026-05-07 11:06 | 23.76917 | 109.05344 | 35872 ft | 456 kts | 274° |
| 2026-05-07 11:06 | 23.77309 | 108.98433 | 35880 ft | 456 kts | 274° |
| 2026-05-07 11:07 | 23.77720 | 108.91516 | 35878 ft | 457 kts | 274° |
| 2026-05-07 11:07 | 23.78137 | 108.84585 | 35885 ft | 457 kts | 274° |
| 2026-05-07 11:08 | 23.78553 | 108.77661 | 35889 ft | 457 kts | 274° |
| 2026-05-07 11:08 | 23.78965 | 108.70728 | 35889 ft | 457 kts | 274° |
| 2026-05-07 11:09 | 23.79372 | 108.63851 | 35893 ft | 457 kts | 274° |
| 2026-05-07 11:09 | 23.79778 | 108.56929 | 35889 ft | 456 kts | 274° |
| 2026-05-07 11:10 | 23.80179 | 108.50019 | 35886 ft | 456 kts | 274° |
| 2026-05-07 11:10 | 23.80579 | 108.43105 | 35893 ft | 455 kts | 273° |
| 2026-05-07 11:11 | 23.80972 | 108.36206 | 35892 ft | 455 kts | 273° |
| 2026-05-07 11:11 | 23.81361 | 108.29356 | 35897 ft | 455 kts | 273° |
| 2026-05-07 11:12 | 23.81751 | 108.22450 | 35885 ft | 455 kts | 273° |
| 2026-05-07 11:12 | 23.82136 | 108.15544 | 35892 ft | 455 kts | 273° |
| 2026-05-07 11:13 | 23.82499 | 108.08637 | 35892 ft | 455 kts | 273° |
| 2026-05-07 11:13 | 23.82850 | 108.01732 | 35897 ft | 456 kts | 273° |
| 2026-05-07 11:14 | 23.83203 | 107.94806 | 35888 ft | 456 kts | 273° |
| 2026-05-07 11:14 | 23.83554 | 107.87903 | 35891 ft | 455 kts | 273° |
| 2026-05-07 11:15 | 23.83943 | 107.81045 | 35893 ft | 455 kts | 274° |
| 2026-05-07 11:15 | 23.84453 | 107.74146 | 35903 ft | 455 kts | 274° |
| 2026-05-07 11:16 | 23.84975 | 107.67255 | 35892 ft | 455 kts | 274° |
| 2026-05-07 11:16 | 23.85482 | 107.60356 | 35905 ft | 456 kts | 274° |
| 2026-05-07 11:17 | 23.85974 | 107.53445 | 35892 ft | 456 kts | 274° |
| 2026-05-07 11:17 | 23.86458 | 107.46540 | 35892 ft | 456 kts | 274° |
| 2026-05-07 11:18 | 23.86944 | 107.39628 | 35897 ft | 456 kts | 274° |
| 2026-05-07 11:18 | 23.87343 | 107.33894 | 35893 ft | 455 kts | 274° |
| 2026-05-07 11:19 | 23.87823 | 107.26997 | 35892 ft | 455 kts | 274° |
| 2026-05-07 11:19 | 23.88299 | 107.20107 | 35889 ft | 455 kts | 274° |
| 2026-05-07 11:20 | 23.88771 | 107.13209 | 35899 ft | 455 kts | 274° |
| 2026-05-07 11:20 | 23.89239 | 107.06349 | 35894 ft | 455 kts | 274° |
| 2026-05-07 11:21 | 23.89705 | 106.99452 | 35893 ft | 455 kts | 274° |
| 2026-05-07 11:21 | 23.90169 | 106.92547 | 35892 ft | 455 kts | 273° |
| 2026-05-07 11:22 | 23.90629 | 106.85657 | 35893 ft | 454 kts | 273° |
| 2026-05-07 11:22 | 23.91084 | 106.78776 | 35892 ft | 454 kts | 274° |
| 2026-05-07 11:23 | 23.91537 | 106.71892 | 35900 ft | 453 kts | 273° |
| 2026-05-07 11:23 | 23.91988 | 106.65017 | 35894 ft | 453 kts | 273° |
| 2026-05-07 11:24 | 23.92659 | 106.58167 | 35903 ft | 454 kts | 280° |
| 2026-05-07 11:24 | 23.94044 | 106.51472 | 35906 ft | 454 kts | 281° |
| 2026-05-07 11:25 | 23.95446 | 106.44741 | 35904 ft | 455 kts | 281° |
| 2026-05-07 11:25 | 23.96827 | 106.37988 | 35904 ft | 455 kts | 281° |
| 2026-05-07 11:26 | 23.98197 | 106.31235 | 35913 ft | 455 kts | 281° |
| 2026-05-07 11:26 | 23.99563 | 106.24471 | 35912 ft | 455 kts | 281° |
| 2026-05-07 11:27 | 24.00924 | 106.17726 | 35919 ft | 455 kts | 281° |
| 2026-05-07 11:27 | 24.02287 | 106.10952 | 35906 ft | 456 kts | 281° |
| 2026-05-07 11:28 | 24.03639 | 106.04221 | 35933 ft | 456 kts | 281° |
| 2026-05-07 11:28 | 24.04999 | 105.97431 | 35918 ft | 457 kts | 281° |
| 2026-05-07 11:29 | 24.06355 | 105.90645 | 35931 ft | 456 kts | 281° |
| 2026-05-07 11:29 | 24.07709 | 105.83852 | 35931 ft | 456 kts | 281° |
| 2026-05-07 11:30 | 24.09059 | 105.77065 | 35948 ft | 456 kts | 281° |
| 2026-05-07 11:30 | 24.10405 | 105.70281 | 35946 ft | 456 kts | 281° |
| 2026-05-07 11:31 | 24.11957 | 105.63540 | 35960 ft | 457 kts | 284° |
| 2026-05-07 11:31 | 24.13645 | 105.56874 | 35956 ft | 457 kts | 284° |
| 2026-05-07 11:32 | 24.16145 | 105.46750 | 35953 ft | 460 kts | 283° |
| 2026-05-07 11:33 | 24.17786 | 105.39977 | 35965 ft | 460 kts | 283° |
| 2026-05-07 11:33 | 24.19426 | 105.33193 | 35960 ft | 460 kts | 283° |
| 2026-05-07 11:34 | 24.21062 | 105.26420 | 35967 ft | 459 kts | 283° |
| 2026-05-07 11:34 | 24.22682 | 105.19660 | 35966 ft | 459 kts | 283° |
| 2026-05-07 11:35 | 24.24201 | 105.12858 | 35971 ft | 458 kts | 282° |
| 2026-05-07 11:35 | 24.25674 | 105.06112 | 35975 ft | 458 kts | 282° |
| 2026-05-07 11:36 | 24.27163 | 104.99322 | 35968 ft | 457 kts | 282° |
| 2026-05-07 11:36 | 24.28652 | 104.92560 | 35991 ft | 456 kts | 282° |
| 2026-05-07 11:37 | 24.30144 | 104.85784 | 35975 ft | 457 kts | 282° |
| 2026-05-07 11:37 | 24.31634 | 104.79007 | 35988 ft | 457 kts | 282° |
| 2026-05-07 11:38 | 24.33110 | 104.72267 | 35987 ft | 458 kts | 282° |
| 2026-05-07 11:38 | 24.34595 | 104.65477 | 35990 ft | 458 kts | 282° |
| 2026-05-07 11:39 | 24.36078 | 104.58672 | 35998 ft | 459 kts | 282° |
| 2026-05-07 11:39 | 24.37563 | 104.51863 | 36002 ft | 459 kts | 282° |
| 2026-05-07 11:40 | 24.39045 | 104.45026 | 36015 ft | 460 kts | 282° |
| 2026-05-07 11:40 | 24.40522 | 104.38205 | 36008 ft | 459 kts | 282° |
| 2026-05-07 11:41 | 24.41993 | 104.31397 | 36043 ft | 458 kts | 282° |
| 2026-05-07 11:41 | 24.43462 | 104.24589 | 36042 ft | 458 kts | 282° |
| 2026-05-07 11:42 | 24.44927 | 104.17776 | 36064 ft | 459 kts | 282° |
| 2026-05-07 11:42 | 24.46391 | 104.10961 | 36059 ft | 459 kts | 282° |
| 2026-05-07 11:43 | 24.47846 | 104.04172 | 36086 ft | 459 kts | 282° |
| 2026-05-07 11:43 | 24.49303 | 103.97344 | 36077 ft | 459 kts | 282° |
| 2026-05-07 11:44 | 24.50759 | 103.90512 | 36105 ft | 459 kts | 282° |
| 2026-05-07 11:44 | 24.52210 | 103.83689 | 36107 ft | 458 kts | 282° |
| 2026-05-07 11:45 | 24.53647 | 103.76857 | 36111 ft | 458 kts | 280° |
| 2026-05-07 11:45 | 24.54364 | 103.69965 | 36113 ft | 457 kts | 271° |
| 2026-05-07 11:46 | 24.54462 | 103.62988 | 36124 ft | 457 kts | 271° |
| 2026-05-07 11:46 | 24.54583 | 103.56003 | 36118 ft | 457 kts | 271° |
| 2026-05-07 11:47 | 24.54721 | 103.49026 | 36134 ft | 456 kts | 271° |
| 2026-05-07 11:47 | 24.54860 | 103.42054 | 36121 ft | 456 kts | 271° |
| 2026-05-07 11:48 | 24.54995 | 103.35094 | 36134 ft | 456 kts | 271° |
| 2026-05-07 11:48 | 24.55126 | 103.28141 | 36133 ft | 455 kts | 271° |
| 2026-05-07 11:49 | 24.55440 | 103.21237 | 36127 ft | 455 kts | 277° |
| 2026-05-07 11:49 | 24.56738 | 103.14435 | 36135 ft | 456 kts | 284° |
| 2026-05-07 11:50 | 24.58854 | 103.07861 | 36138 ft | 456 kts | 289° |
| 2026-05-07 11:50 | 24.61107 | 103.01353 | 36138 ft | 456 kts | 289° |
| 2026-05-07 11:51 | 24.63303 | 102.94887 | 36143 ft | 456 kts | 289° |
| 2026-05-07 11:51 | 24.65505 | 102.88335 | 36139 ft | 456 kts | 288° |
| 2026-05-07 11:52 | 24.67352 | 102.81734 | 36147 ft | 453 kts | 279° |
| 2026-05-07 11:52 | 24.67998 | 102.74846 | 36161 ft | 453 kts | 270° |
| 2026-05-07 11:53 | 24.67624 | 102.67940 | 36159 ft | 453 kts | 265° |
| 2026-05-07 11:53 | 24.67153 | 102.61038 | 36143 ft | 452 kts | 266° |
| 2026-05-07 11:54 | 24.66753 | 102.54142 | 36155 ft | 452 kts | 267° |
| 2026-05-07 11:54 | 24.66459 | 102.47237 | 36148 ft | 452 kts | 267° |
| 2026-05-07 11:55 | 24.66182 | 102.40335 | 36149 ft | 452 kts | 267° |
| 2026-05-07 11:55 | 24.65890 | 102.33472 | 36150 ft | 451 kts | 267° |
| 2026-05-07 11:56 | 24.65586 | 102.26588 | 36140 ft | 451 kts | 267° |
| 2026-05-07 11:56 | 24.65277 | 102.19694 | 36130 ft | 451 kts | 267° |
| 2026-05-07 11:57 | 24.64965 | 102.12798 | 36112 ft | 451 kts | 267° |
| 2026-05-07 11:57 | 24.64651 | 102.05916 | 36114 ft | 451 kts | 266° |
| 2026-05-07 11:58 | 24.64336 | 101.99081 | 36097 ft | 450 kts | 266° |
| 2026-05-07 11:58 | 24.64018 | 101.92220 | 36088 ft | 449 kts | 266° |
| 2026-05-07 11:59 | 24.63696 | 101.85380 | 36065 ft | 447 kts | 266° |
| 2026-05-07 11:59 | 24.63371 | 101.78551 | 36070 ft | 447 kts | 266° |
| 2026-05-07 12:00 | 24.63046 | 101.71733 | 36061 ft | 446 kts | 266° |
| 2026-05-07 12:00 | 24.62716 | 101.64920 | 36079 ft | 446 kts | 266° |
| 2026-05-07 12:01 | 24.61954 | 101.58167 | 36053 ft | 446 kts | 256° |
| 2026-05-07 12:01 | 24.59994 | 101.51701 | 36032 ft | 447 kts | 247° |
| 2026-05-07 12:02 | 24.57097 | 101.45652 | 36000 ft | 448 kts | 243° |
| 2026-05-07 12:02 | 24.54081 | 101.39660 | 36038 ft | 449 kts | 243° |
| 2026-05-07 12:03 | 24.51069 | 101.33628 | 36025 ft | 451 kts | 243° |
| 2026-05-07 12:03 | 24.48076 | 101.27597 | 36037 ft | 451 kts | 243° |
| 2026-05-07 12:04 | 24.45084 | 101.21542 | 36029 ft | 451 kts | 243° |
| 2026-05-07 12:04 | 24.42084 | 101.15486 | 36036 ft | 452 kts | 243° |
| 2026-05-07 12:05 | 24.39096 | 101.09463 | 36035 ft | 452 kts | 243° |
| 2026-05-07 12:05 | 24.36091 | 101.03420 | 36038 ft | 451 kts | 243° |
| 2026-05-07 12:06 | 24.33091 | 100.97389 | 36023 ft | 450 kts | 243° |
| 2026-05-07 12:06 | 24.30590 | 100.92366 | 36000 ft | 451 kts | 243° |
| 2026-05-07 12:07 | 24.27084 | 100.85340 | 36015 ft | 449 kts | 243° |
| 2026-05-07 12:07 | 24.24588 | 100.80343 | 36014 ft | 450 kts | 243° |
| 2026-05-07 12:08 | 24.21576 | 100.74312 | 36012 ft | 452 kts | 243° |
| 2026-05-07 12:08 | 24.18545 | 100.68255 | 35991 ft | 454 kts | 243° |
| 2026-05-07 12:09 | 24.15506 | 100.62188 | 35989 ft | 455 kts | 243° |
| 2026-05-07 12:09 | 24.12453 | 100.56110 | 35982 ft | 455 kts | 243° |
| 2026-05-07 12:10 | 24.09372 | 100.50047 | 35981 ft | 456 kts | 242° |
| 2026-05-07 12:10 | 24.06270 | 100.44011 | 35981 ft | 454 kts | 242° |
| 2026-05-07 12:11 | 24.03181 | 100.38005 | 35951 ft | 452 kts | 243° |
| 2026-05-07 12:11 | 24.00098 | 100.32006 | 35953 ft | 452 kts | 242° |
| 2026-05-07 12:12 | 23.97035 | 100.26044 | 35955 ft | 452 kts | 242° |
| 2026-05-07 12:12 | 23.93945 | 100.20049 | 35976 ft | 452 kts | 242° |
| 2026-05-07 12:13 | 23.90851 | 100.14041 | 35957 ft | 453 kts | 242° |
| 2026-05-07 12:13 | 23.87750 | 100.08031 | 35950 ft | 454 kts | 242° |
| 2026-05-07 12:14 | 23.84652 | 100.02034 | 35955 ft | 453 kts | 242° |
| 2026-05-07 12:14 | 23.81550 | 99.96040 | 35956 ft | 453 kts | 242° |
| 2026-05-07 12:15 | 23.78447 | 99.90047 | 35943 ft | 454 kts | 242° |
| 2026-05-07 12:15 | 23.75360 | 99.84099 | 35920 ft | 452 kts | 242° |
| 2026-05-07 12:16 | 23.72264 | 99.78128 | 35938 ft | 453 kts | 242° |
| 2026-05-07 12:16 | 23.69155 | 99.72145 | 35936 ft | 453 kts | 242° |
| 2026-05-07 12:17 | 23.66036 | 99.66161 | 35940 ft | 453 kts | 242° |
| 2026-05-07 12:17 | 23.62923 | 99.60189 | 35934 ft | 452 kts | 242° |
| 2026-05-07 12:18 | 23.59835 | 99.54263 | 35934 ft | 452 kts | 242° |
| 2026-05-07 12:18 | 23.56719 | 99.48296 | 35937 ft | 452 kts | 242° |
| 2026-05-07 12:19 | 23.53629 | 99.42313 | 35939 ft | 452 kts | 245° |
| 2026-05-07 12:19 | 23.51251 | 99.36007 | 35925 ft | 450 kts | 252° |
| 2026-05-07 12:20 | 23.49287 | 99.29536 | 35934 ft | 449 kts | 252° |
| 2026-05-07 12:20 | 23.47299 | 99.23087 | 35910 ft | 450 kts | 252° |
| 2026-05-07 12:21 | 23.45289 | 99.16626 | 35926 ft | 451 kts | 252° |
| 2026-05-07 12:21 | 23.43266 | 99.10145 | 35921 ft | 452 kts | 252° |
| 2026-05-07 12:22 | 23.41251 | 99.03694 | 35904 ft | 452 kts | 252° |
| 2026-05-07 12:22 | 23.39225 | 98.97209 | 35917 ft | 452 kts | 252° |
| 2026-05-07 12:23 | 23.37195 | 98.90744 | 35914 ft | 450 kts | 252° |
| 2026-05-07 12:23 | 23.35070 | 98.84324 | 35904 ft | 451 kts | 251° |
| 2026-05-07 12:24 | 23.32902 | 98.77923 | 35905 ft | 451 kts | 251° |
| 2026-05-07 12:24 | 23.30748 | 98.71548 | 35912 ft | 451 kts | 251° |
| 2026-05-07 12:25 | 23.28594 | 98.65148 | 35905 ft | 451 kts | 251° |
| 2026-05-07 12:25 | 23.26439 | 98.58750 | 35908 ft | 450 kts | 251° |
| 2026-05-07 12:26 | 23.24289 | 98.52360 | 35893 ft | 449 kts | 251° |
| 2026-05-07 12:26 | 23.22141 | 98.45991 | 35905 ft | 449 kts | 251° |
| 2026-05-07 12:27 | 23.19985 | 98.39612 | 35887 ft | 449 kts | 251° |
| 2026-05-07 12:27 | 23.17828 | 98.33247 | 35905 ft | 449 kts | 251° |
| 2026-05-07 12:28 | 23.15665 | 98.26861 | 35909 ft | 450 kts | 250° |
| 2026-05-07 12:28 | 23.13495 | 98.20475 | 35900 ft | 450 kts | 250° |
| 2026-05-07 12:29 | 23.11322 | 98.14085 | 35895 ft | 450 kts | 250° |
| 2026-05-07 12:29 | 23.09165 | 98.07751 | 35899 ft | 450 kts | 250° |
| 2026-05-07 12:30 | 23.06991 | 98.01376 | 35892 ft | 449 kts | 250° |
| 2026-05-07 12:30 | 23.04816 | 97.95008 | 35886 ft | 449 kts | 250° |
| 2026-05-07 12:31 | 23.02642 | 97.88651 | 35869 ft | 448 kts | 250° |
| 2026-05-07 12:31 | 23.00471 | 97.82311 | 35868 ft | 448 kts | 250° |
| 2026-05-07 12:32 | 22.98485 | 97.75902 | 35868 ft | 447 kts | 256° |
| 2026-05-07 12:32 | 22.97405 | 97.69268 | 35875 ft | 447 kts | 263° |
| 2026-05-07 12:33 | 22.96401 | 97.59212 | 35877 ft | 447 kts | 263° |
| 2026-05-07 12:33 | 22.95719 | 97.52552 | 35880 ft | 447 kts | 263° |
| 2026-05-07 12:34 | 22.95019 | 97.45852 | 35884 ft | 447 kts | 263° |
| 2026-05-07 12:34 | 22.94313 | 97.39156 | 35884 ft | 446 kts | 263° |
| 2026-05-07 12:35 | 22.93608 | 97.32465 | 35874 ft | 445 kts | 263° |
| 2026-05-07 12:35 | 22.92899 | 97.25789 | 35877 ft | 446 kts | 263° |
| 2026-05-07 12:36 | 22.92182 | 97.19089 | 35881 ft | 448 kts | 263° |
| 2026-05-07 12:36 | 22.91461 | 97.12354 | 35884 ft | 449 kts | 263° |
| 2026-05-07 12:37 | 22.90738 | 97.05624 | 35902 ft | 450 kts | 263° |
| 2026-05-07 12:37 | 22.90016 | 96.98930 | 35897 ft | 450 kts | 263° |
| 2026-05-07 12:38 | 22.89284 | 96.92173 | 35896 ft | 450 kts | 263° |
| 2026-05-07 12:38 | 22.88549 | 96.85422 | 35891 ft | 450 kts | 262° |
| 2026-05-07 12:39 | 22.87813 | 96.78682 | 35885 ft | 450 kts | 262° |
| 2026-05-07 12:39 | 22.87077 | 96.71959 | 35888 ft | 449 kts | 262° |
| 2026-05-07 12:40 | 22.86338 | 96.65244 | 35876 ft | 448 kts | 262° |
| 2026-05-07 12:40 | 22.85600 | 96.58567 | 35874 ft | 447 kts | 262° |
| 2026-05-07 12:41 | 22.84856 | 96.51858 | 35872 ft | 448 kts | 262° |
| 2026-05-07 12:41 | 22.84108 | 96.45152 | 35871 ft | 448 kts | 262° |
| 2026-05-07 12:42 | 22.83360 | 96.38453 | 35849 ft | 448 kts | 262° |
| 2026-05-07 12:42 | 22.82606 | 96.31740 | 35858 ft | 448 kts | 262° |
| 2026-05-07 12:43 | 22.81852 | 96.25030 | 35860 ft | 448 kts | 262° |
| 2026-05-07 12:43 | 22.81092 | 96.18327 | 35834 ft | 447 kts | 262° |
| 2026-05-07 12:44 | 22.80338 | 96.11684 | 35831 ft | 447 kts | 262° |
| 2026-05-07 12:44 | 22.79575 | 96.04980 | 35821 ft | 448 kts | 262° |
| 2026-05-07 12:45 | 22.78808 | 95.98279 | 35813 ft | 448 kts | 262° |
| 2026-05-07 12:45 | 22.78039 | 95.91572 | 35806 ft | 448 kts | 262° |
| 2026-05-07 12:46 | 22.77271 | 95.84911 | 35801 ft | 448 kts | 262° |
| 2026-05-07 12:46 | 22.76497 | 95.78217 | 35808 ft | 448 kts | 262° |
| 2026-05-07 12:47 | 22.75714 | 95.71478 | 35803 ft | 448 kts | 262° |
| 2026-05-07 12:47 | 22.74935 | 95.64790 | 35813 ft | 448 kts | 262° |
| 2026-05-07 12:48 | 22.74158 | 95.58146 | 35807 ft | 447 kts | 262° |
| 2026-05-07 12:48 | 22.73376 | 95.51484 | 35807 ft | 446 kts | 262° |
| 2026-05-07 12:49 | 22.72589 | 95.44803 | 35813 ft | 446 kts | 262° |
| 2026-05-07 12:49 | 22.71801 | 95.38138 | 35813 ft | 446 kts | 262° |
| 2026-05-07 12:50 | 22.71012 | 95.31485 | 35827 ft | 445 kts | 261° |
| 2026-05-07 12:50 | 22.70219 | 95.24832 | 35818 ft | 445 kts | 261° |
| 2026-05-07 12:51 | 22.69424 | 95.18184 | 35804 ft | 445 kts | 261° |
| 2026-05-07 12:51 | 22.68632 | 95.11580 | 35821 ft | 445 kts | 261° |
| 2026-05-07 12:52 | 22.67832 | 95.04927 | 35825 ft | 446 kts | 261° |
| 2026-05-07 12:52 | 22.67026 | 94.98255 | 35828 ft | 447 kts | 261° |
| 2026-05-07 12:53 | 22.66216 | 94.91576 | 35832 ft | 447 kts | 261° |
| 2026-05-07 12:53 | 22.65404 | 94.84901 | 35831 ft | 448 kts | 261° |
| 2026-05-07 12:54 | 22.64587 | 94.78211 | 35827 ft | 448 kts | 261° |
| 2026-05-07 12:54 | 22.63769 | 94.71527 | 35834 ft | 448 kts | 261° |
| 2026-05-07 12:55 | 22.62948 | 94.64850 | 35839 ft | 447 kts | 261° |
| 2026-05-07 12:55 | 22.62265 | 94.59308 | 35838 ft | 447 kts | 261° |
| 2026-05-07 12:56 | 22.61439 | 94.52636 | 35855 ft | 447 kts | 261° |
| 2026-05-07 12:56 | 22.60478 | 94.44898 | 35852 ft | 446 kts | 261° |
| 2026-05-07 12:57 | 22.59790 | 94.39373 | 35851 ft | 445 kts | 261° |
| 2026-05-07 12:57 | 22.58962 | 94.32745 | 35847 ft | 444 kts | 261° |
| 2026-05-07 12:58 | 22.58130 | 94.26118 | 35851 ft | 443 kts | 261° |
| 2026-05-07 12:58 | 22.57295 | 94.19487 | 35849 ft | 444 kts | 261° |
| 2026-05-07 12:59 | 22.56458 | 94.12861 | 35850 ft | 444 kts | 260° |
| 2026-05-07 12:59 | 22.55618 | 94.06230 | 35875 ft | 444 kts | 260° |
| 2026-05-07 13:00 | 22.54777 | 93.99615 | 35880 ft | 444 kts | 260° |
| 2026-05-07 13:00 | 22.53932 | 93.92988 | 35905 ft | 445 kts | 260° |
| 2026-05-07 13:01 | 22.53089 | 93.86402 | 35906 ft | 445 kts | 260° |
| 2026-05-07 13:01 | 22.52249 | 93.79766 | 35928 ft | 446 kts | 260° |
| 2026-05-07 13:02 | 22.51385 | 93.73132 | 35936 ft | 445 kts | 260° |
| 2026-05-07 13:02 | 22.50523 | 93.66503 | 35935 ft | 445 kts | 260° |
| 2026-05-07 13:03 | 22.49661 | 93.59864 | 35945 ft | 445 kts | 260° |
| 2026-05-07 13:03 | 22.48801 | 93.53227 | 35933 ft | 447 kts | 260° |
| 2026-05-07 13:04 | 22.47933 | 93.46571 | 35964 ft | 447 kts | 260° |
| 2026-05-07 13:04 | 22.47064 | 93.39941 | 35959 ft | 448 kts | 260° |
| 2026-05-07 13:05 | 22.46187 | 93.33262 | 35945 ft | 448 kts | 260° |
| 2026-05-07 13:05 | 22.45306 | 93.26584 | 35948 ft | 448 kts | 260° |
| 2026-05-07 13:06 | 22.44425 | 93.19914 | 35941 ft | 448 kts | 260° |
| 2026-05-07 13:06 | 22.43541 | 93.13249 | 35939 ft | 447 kts | 260° |
| 2026-05-07 13:07 | 22.42658 | 93.06601 | 35910 ft | 446 kts | 260° |
| 2026-05-07 13:07 | 22.41776 | 93.00009 | 35898 ft | 446 kts | 260° |
| 2026-05-07 13:08 | 22.40886 | 92.93364 | 35911 ft | 447 kts | 260° |
| 2026-05-07 13:08 | 22.39991 | 92.86701 | 35878 ft | 448 kts | 260° |
| 2026-05-07 13:09 | 22.39094 | 92.80034 | 35875 ft | 447 kts | 260° |
| 2026-05-07 13:09 | 22.38193 | 92.73374 | 35866 ft | 448 kts | 259° |
| 2026-05-07 13:10 | 22.37292 | 92.66714 | 35874 ft | 447 kts | 260° |
| 2026-05-07 13:10 | 22.36394 | 92.60073 | 35865 ft | 447 kts | 260° |
| 2026-05-07 13:11 | 22.35492 | 92.53434 | 35850 ft | 446 kts | 260° |
| 2026-05-07 13:11 | 22.34592 | 92.46860 | 35847 ft | 445 kts | 260° |
| 2026-05-07 13:12 | 22.33691 | 92.40243 | 35845 ft | 445 kts | 260° |
| 2026-05-07 13:12 | 22.32784 | 92.33627 | 35845 ft | 445 kts | 259° |
| 2026-05-07 13:13 | 22.31872 | 92.26998 | 35859 ft | 445 kts | 260° |
| 2026-05-07 13:13 | 22.30973 | 92.20421 | 35847 ft | 445 kts | 260° |
| 2026-05-07 13:14 | 22.30070 | 92.13804 | 35842 ft | 445 kts | 260° |
| 2026-05-07 13:14 | 22.29167 | 92.07205 | 35839 ft | 444 kts | 260° |
| 2026-05-07 13:15 | 22.28259 | 92.00598 | 35840 ft | 444 kts | 260° |
| 2026-05-07 13:15 | 22.27352 | 91.94011 | 35839 ft | 444 kts | 260° |
| 2026-05-07 13:16 | 22.26444 | 91.87424 | 35840 ft | 444 kts | 261° |
| 2026-05-07 13:16 | 22.26155 | 91.80752 | 35836 ft | 446 kts | 269° |
| 2026-05-07 13:17 | 22.26752 | 91.74058 | 35838 ft | 448 kts | 274° |
| 2026-05-07 13:17 | 22.27554 | 91.67391 | 35835 ft | 448 kts | 274° |
| 2026-05-07 13:18 | 22.28334 | 91.60721 | 35836 ft | 448 kts | 274° |
| 2026-05-07 13:18 | 22.29090 | 91.54094 | 35836 ft | 447 kts | 274° |
| 2026-05-07 13:19 | 22.29847 | 91.47422 | 35847 ft | 448 kts | 274° |
| 2026-05-07 13:19 | 22.30602 | 91.40746 | 35836 ft | 447 kts | 274° |
| 2026-05-07 13:20 | 22.31377 | 91.34078 | 35844 ft | 447 kts | 274° |
| 2026-05-07 13:20 | 22.32210 | 91.27418 | 35843 ft | 447 kts | 274° |
| 2026-05-07 13:21 | 22.33046 | 91.20760 | 35847 ft | 447 kts | 274° |
| 2026-05-07 13:21 | 22.33873 | 91.14088 | 35850 ft | 447 kts | 274° |
| 2026-05-07 13:22 | 22.34688 | 91.07462 | 35839 ft | 447 kts | 274° |
| 2026-05-07 13:22 | 22.35504 | 91.00794 | 35843 ft | 447 kts | 274° |
| 2026-05-07 13:23 | 22.36316 | 90.94129 | 35850 ft | 447 kts | 274° |
| 2026-05-07 13:23 | 22.37127 | 90.87462 | 35853 ft | 447 kts | 274° |
| 2026-05-07 13:24 | 22.37934 | 90.80801 | 35849 ft | 447 kts | 274° |
| 2026-05-07 13:24 | 22.38740 | 90.74124 | 35855 ft | 447 kts | 274° |
| 2026-05-07 13:25 | 22.39542 | 90.67458 | 35849 ft | 447 kts | 274° |
| 2026-05-07 13:25 | 22.40341 | 90.60789 | 35848 ft | 447 kts | 274° |
| 2026-05-07 13:26 | 22.41136 | 90.54129 | 35847 ft | 447 kts | 274° |
| 2026-05-07 13:26 | 22.41930 | 90.47461 | 35849 ft | 447 kts | 274° |
| 2026-05-07 13:27 | 22.42714 | 90.40845 | 35850 ft | 447 kts | 274° |
| 2026-05-07 13:27 | 22.43501 | 90.34188 | 35854 ft | 447 kts | 274° |
| 2026-05-07 13:28 | 22.44286 | 90.27517 | 35849 ft | 447 kts | 274° |
| 2026-05-07 13:28 | 22.45068 | 90.20853 | 35850 ft | 447 kts | 274° |
| 2026-05-07 13:29 | 22.45847 | 90.14193 | 35868 ft | 446 kts | 274° |
| 2026-05-07 13:29 | 22.46623 | 90.07529 | 35857 ft | 446 kts | 274° |
| 2026-05-07 13:30 | 22.47396 | 90.00867 | 35852 ft | 446 kts | 274° |
| 2026-05-07 13:30 | 22.48159 | 89.94267 | 35853 ft | 446 kts | 274° |
| 2026-05-07 13:31 | 22.48925 | 89.87615 | 35847 ft | 445 kts | 274° |
| 2026-05-07 13:31 | 22.49688 | 89.80972 | 35850 ft | 445 kts | 274° |
| 2026-05-07 13:32 | 22.50443 | 89.74370 | 35851 ft | 445 kts | 273° |
| 2026-05-07 13:32 | 22.51199 | 89.67729 | 35851 ft | 445 kts | 273° |
| 2026-05-07 13:33 | 22.51954 | 89.61085 | 35849 ft | 445 kts | 273° |
| 2026-05-07 13:33 | 22.52706 | 89.54429 | 35848 ft | 445 kts | 273° |
| 2026-05-07 13:34 | 22.53825 | 89.44489 | 35846 ft | 445 kts | 273° |
| 2026-05-07 13:35 | 22.54572 | 89.37825 | 35847 ft | 446 kts | 273° |
| 2026-05-07 13:35 | 22.55316 | 89.31158 | 35848 ft | 446 kts | 273° |
| 2026-05-07 13:36 | 22.56057 | 89.24497 | 35846 ft | 446 kts | 273° |
| 2026-05-07 13:36 | 22.56790 | 89.17872 | 35850 ft | 446 kts | 273° |
| 2026-05-07 13:37 | 22.57525 | 89.11209 | 35846 ft | 446 kts | 273° |
| 2026-05-07 13:37 | 22.58259 | 89.04538 | 35845 ft | 446 kts | 273° |
| 2026-05-07 13:38 | 22.58987 | 88.97888 | 35845 ft | 445 kts | 273° |
| 2026-05-07 13:38 | 22.59841 | 88.91233 | 35844 ft | 447 kts | 276° |
| 2026-05-07 13:39 | 22.60961 | 88.84623 | 35853 ft | 447 kts | 277° |
| 2026-05-07 13:39 | 22.62090 | 88.78012 | 35851 ft | 446 kts | 277° |
| 2026-05-07 13:40 | 22.63198 | 88.71403 | 35863 ft | 446 kts | 276° |
| 2026-05-07 13:40 | 22.64296 | 88.64791 | 35867 ft | 445 kts | 276° |
| 2026-05-07 13:41 | 22.65381 | 88.58243 | 35878 ft | 445 kts | 276° |
| 2026-05-07 13:41 | 22.66436 | 88.51642 | 35872 ft | 440 kts | 272° |
| 2026-05-07 13:41 | 22.66297 | 88.48358 | 35890 ft | 435 kts | 256° |
| 2026-05-07 13:42 | 22.65369 | 88.45250 | 35909 ft | 434 kts | 247° |
| 2026-05-07 13:42 | 22.62190 | 88.39693 | 35871 ft | 440 kts | 227° |
| 2026-05-07 13:43 | 22.57496 | 88.35421 | 35884 ft | 442 kts | 223° |
| 2026-05-07 13:43 | 22.52740 | 88.31251 | 35878 ft | 443 kts | 223° |
| 2026-05-07 13:44 | 22.48751 | 88.27704 | 35849 ft | 444 kts | 223° |
| 2026-05-07 13:44 | 22.44029 | 88.23454 | 35818 ft | 444 kts | 223° |
| 2026-05-07 13:45 | 22.39289 | 88.19169 | 35840 ft | 445 kts | 223° |
| 2026-05-07 13:45 | 22.34533 | 88.14871 | 35848 ft | 445 kts | 223° |
| 2026-05-07 13:46 | 22.29766 | 88.10568 | 35849 ft | 446 kts | 223° |
| 2026-05-07 13:46 | 22.25000 | 88.06270 | 35846 ft | 447 kts | 223° |
| 2026-05-07 13:47 | 22.20222 | 88.01967 | 35851 ft | 447 kts | 223° |
| 2026-05-07 13:47 | 22.15474 | 87.97695 | 35848 ft | 447 kts | 223° |
| 2026-05-07 13:48 | 22.10698 | 87.93400 | 35851 ft | 446 kts | 223° |
| 2026-05-07 13:48 | 22.05929 | 87.89117 | 35847 ft | 446 kts | 223° |
| 2026-05-07 13:49 | 22.01156 | 87.84834 | 35849 ft | 446 kts | 223° |
| 2026-05-07 13:49 | 21.96388 | 87.80559 | 35849 ft | 445 kts | 223° |
| 2026-05-07 13:50 | 21.91625 | 87.76292 | 35847 ft | 445 kts | 223° |
| 2026-05-07 13:50 | 21.86895 | 87.72058 | 35848 ft | 445 kts | 223° |
| 2026-05-07 13:51 | 21.82131 | 87.67798 | 35857 ft | 445 kts | 223° |
| 2026-05-07 13:51 | 21.77370 | 87.63544 | 35826 ft | 445 kts | 223° |
| 2026-05-07 13:52 | 21.72603 | 87.59288 | 35849 ft | 445 kts | 223° |
| 2026-05-07 13:52 | 21.67825 | 87.55028 | 35857 ft | 446 kts | 223° |
| 2026-05-07 13:53 | 21.63038 | 87.50761 | 35853 ft | 447 kts | 223° |
| 2026-05-07 13:53 | 21.58241 | 87.46491 | 35853 ft | 448 kts | 223° |
| 2026-05-07 13:54 | 21.53468 | 87.42246 | 35858 ft | 448 kts | 223° |
| 2026-05-07 13:54 | 21.48651 | 87.37966 | 35853 ft | 448 kts | 223° |
| 2026-05-07 13:55 | 21.43841 | 87.33695 | 35820 ft | 449 kts | 223° |
| 2026-05-07 13:55 | 21.39026 | 87.29423 | 35847 ft | 450 kts | 223° |
| 2026-05-07 13:56 | 21.34182 | 87.25130 | 35852 ft | 452 kts | 223° |
| 2026-05-07 13:56 | 21.29354 | 87.20854 | 35854 ft | 454 kts | 223° |
| 2026-05-07 13:57 | 21.24478 | 87.16541 | 35851 ft | 455 kts | 223° |
| 2026-05-07 13:57 | 21.19588 | 87.12218 | 35850 ft | 455 kts | 223° |
| 2026-05-07 13:58 | 21.14699 | 87.07900 | 35847 ft | 456 kts | 223° |
| 2026-05-07 13:58 | 21.09802 | 87.03578 | 35830 ft | 456 kts | 222° |
| 2026-05-07 13:59 | 21.04907 | 86.99262 | 35841 ft | 456 kts | 222° |
| 2026-05-07 13:59 | 21.00041 | 86.94977 | 35850 ft | 456 kts | 222° |
| 2026-05-07 14:00 | 20.95138 | 86.90661 | 35844 ft | 456 kts | 222° |
| 2026-05-07 14:00 | 20.90230 | 86.86345 | 35847 ft | 457 kts | 222° |
| 2026-05-07 14:01 | 20.85315 | 86.82024 | 35850 ft | 457 kts | 222° |
| 2026-05-07 14:01 | 20.80395 | 86.77702 | 35841 ft | 458 kts | 222° |
| 2026-05-07 14:02 | 20.75468 | 86.73342 | 36168 ft | 460 kts | 222° |
| 2026-05-07 14:02 | 20.73008 | 86.71164 | 36563 ft | 458 kts | 222° |
| 2026-05-07 14:02 | 20.70561 | 86.69000 | 36949 ft | 455 kts | 222° |
| 2026-05-07 14:02 | 20.68153 | 86.66871 | 37312 ft | 454 kts | 222° |
| 2026-05-07 14:03 | 20.65725 | 86.64726 | 37654 ft | 453 kts | 222° |
| 2026-05-07 14:03 | 20.63293 | 86.62578 | 37779 ft | 456 kts | 222° |
| 2026-05-07 14:03 | 20.60841 | 86.60412 | 37821 ft | 457 kts | 222° |
| 2026-05-07 14:04 | 20.55953 | 86.56101 | 37833 ft | 454 kts | 222° |
| 2026-05-07 14:04 | 20.51109 | 86.51820 | 37829 ft | 450 kts | 224° |
| 2026-05-07 14:05 | 20.47157 | 86.46750 | 37836 ft | 443 kts | 239° |
| 2026-05-07 14:05 | 20.44478 | 86.40879 | 37834 ft | 441 kts | 250° |
| 2026-05-07 14:06 | 20.42446 | 86.34707 | 37823 ft | 442 kts | 251° |
| 2026-05-07 14:06 | 20.40407 | 86.28504 | 37833 ft | 443 kts | 250° |
| 2026-05-07 14:07 | 20.38339 | 86.22337 | 37834 ft | 446 kts | 250° |
| 2026-05-07 14:07 | 20.36231 | 86.16108 | 37834 ft | 448 kts | 250° |
| 2026-05-07 14:08 | 20.34108 | 86.09850 | 37820 ft | 449 kts | 250° |
| 2026-05-07 14:08 | 20.31984 | 86.03590 | 37817 ft | 450 kts | 250° |
| 2026-05-07 14:09 | 20.29850 | 85.97309 | 37805 ft | 450 kts | 250° |
| 2026-05-07 14:09 | 20.27717 | 85.91037 | 37801 ft | 450 kts | 250° |
| 2026-05-07 14:10 | 20.25583 | 85.84771 | 37802 ft | 450 kts | 250° |
| 2026-05-07 14:10 | 20.23157 | 85.78697 | 37807 ft | 449 kts | 242° |
| 2026-05-07 14:11 | 20.20167 | 85.72848 | 37801 ft | 449 kts | 242° |
| 2026-05-07 14:11 | 20.17190 | 85.67022 | 37830 ft | 448 kts | 242° |
| 2026-05-07 14:12 | 20.14225 | 85.61185 | 37831 ft | 447 kts | 242° |
| 2026-05-07 14:12 | 20.11269 | 85.55352 | 37830 ft | 447 kts | 242° |
| 2026-05-07 14:13 | 20.08335 | 85.49564 | 37830 ft | 447 kts | 242° |
| 2026-05-07 14:13 | 20.05381 | 85.43744 | 37821 ft | 447 kts | 242° |
| 2026-05-07 14:14 | 20.02424 | 85.37924 | 37832 ft | 447 kts | 242° |
| 2026-05-07 14:14 | 19.99463 | 85.32103 | 37839 ft | 447 kts | 242° |
| 2026-05-07 14:15 | 19.96496 | 85.26276 | 37846 ft | 448 kts | 242° |
| 2026-05-07 14:15 | 19.93527 | 85.20453 | 37863 ft | 448 kts | 242° |
| 2026-05-07 14:16 | 19.90572 | 85.14661 | 37839 ft | 449 kts | 242° |
| 2026-05-07 14:16 | 19.87595 | 85.08831 | 37848 ft | 449 kts | 242° |
| 2026-05-07 14:17 | 19.84612 | 85.02993 | 37845 ft | 448 kts | 242° |
| 2026-05-07 14:17 | 19.81633 | 84.97175 | 37849 ft | 448 kts | 242° |
| 2026-05-07 14:18 | 19.78653 | 84.91360 | 37852 ft | 449 kts | 242° |
| 2026-05-07 14:18 | 19.75667 | 84.85536 | 37853 ft | 449 kts | 242° |
| 2026-05-07 14:19 | 19.72676 | 84.79708 | 37862 ft | 449 kts | 242° |
| 2026-05-07 14:19 | 19.69702 | 84.73918 | 37857 ft | 450 kts | 242° |
| 2026-05-07 14:20 | 19.66703 | 84.68086 | 37844 ft | 450 kts | 242° |
| 2026-05-07 14:20 | 19.63699 | 84.62251 | 37853 ft | 451 kts | 242° |
| 2026-05-07 14:21 | 19.60684 | 84.56399 | 37871 ft | 452 kts | 242° |
| 2026-05-07 14:21 | 19.57665 | 84.50544 | 37870 ft | 452 kts | 242° |
| 2026-05-07 14:22 | 19.54645 | 84.44692 | 37893 ft | 453 kts | 242° |
| 2026-05-07 14:22 | 19.51621 | 84.38836 | 37864 ft | 453 kts | 242° |
| 2026-05-07 14:23 | 19.48615 | 84.33020 | 37885 ft | 453 kts | 242° |
| 2026-05-07 14:23 | 19.45585 | 84.27166 | 37906 ft | 453 kts | 242° |
| 2026-05-07 14:24 | 19.42549 | 84.21306 | 37898 ft | 453 kts | 242° |
| 2026-05-07 14:24 | 19.39511 | 84.15456 | 37896 ft | 453 kts | 242° |
| 2026-05-07 14:25 | 19.36473 | 84.09601 | 37919 ft | 453 kts | 242° |
| 2026-05-07 14:25 | 19.33432 | 84.03750 | 37896 ft | 454 kts | 242° |
| 2026-05-07 14:26 | 19.30388 | 83.97898 | 37909 ft | 454 kts | 242° |
| 2026-05-07 14:26 | 19.27334 | 83.92033 | 37909 ft | 455 kts | 242° |
| 2026-05-07 14:27 | 19.24286 | 83.86184 | 37899 ft | 456 kts | 242° |
| 2026-05-07 14:27 | 19.21218 | 83.80304 | 37892 ft | 456 kts | 242° |
| 2026-05-07 14:28 | 19.18146 | 83.74420 | 37889 ft | 456 kts | 242° |
| 2026-05-07 14:28 | 19.15076 | 83.68547 | 37886 ft | 457 kts | 242° |
| 2026-05-07 14:29 | 19.11998 | 83.62665 | 37890 ft | 457 kts | 242° |
| 2026-05-07 14:29 | 19.08920 | 83.56789 | 37890 ft | 457 kts | 242° |
| 2026-05-07 14:30 | 19.05841 | 83.50915 | 37887 ft | 457 kts | 242° |
| 2026-05-07 14:30 | 19.02759 | 83.45043 | 37908 ft | 456 kts | 242° |
| 2026-05-07 14:31 | 18.99681 | 83.39181 | 37879 ft | 456 kts | 242° |
| 2026-05-07 14:31 | 18.96622 | 83.33364 | 37894 ft | 455 kts | 242° |
| 2026-05-07 14:32 | 18.93544 | 83.27515 | 37908 ft | 456 kts | 242° |
| 2026-05-07 14:32 | 18.90456 | 83.21652 | 37906 ft | 456 kts | 242° |
| 2026-05-07 14:33 | 18.87372 | 83.15804 | 37914 ft | 456 kts | 242° |
| 2026-05-07 14:33 | 18.84272 | 83.09932 | 37913 ft | 457 kts | 242° |
| 2026-05-07 14:34 | 18.81693 | 83.05049 | 37909 ft | 459 kts | 242° |
| 2026-05-07 14:34 | 18.78581 | 82.99165 | 37920 ft | 460 kts | 242° |
| 2026-05-07 14:35 | 18.74954 | 82.92310 | 37928 ft | 460 kts | 242° |
| 2026-05-07 14:35 | 18.72334 | 82.87365 | 37923 ft | 461 kts | 241° |
| 2026-05-07 14:36 | 18.69205 | 82.81465 | 37926 ft | 461 kts | 241° |
| 2026-05-07 14:36 | 18.66086 | 82.75588 | 37922 ft | 461 kts | 241° |
| 2026-05-07 14:37 | 18.62947 | 82.69682 | 37911 ft | 461 kts | 241° |
| 2026-05-07 14:37 | 18.58237 | 82.60824 | 37908 ft | 461 kts | 241° |
| 2026-05-07 14:38 | 18.55095 | 82.54923 | 37901 ft | 461 kts | 241° |
| 2026-05-07 14:38 | 18.51951 | 82.49026 | 37897 ft | 461 kts | 242° |
| 2026-05-07 14:39 | 18.48813 | 82.43145 | 37906 ft | 461 kts | 241° |
| 2026-05-07 14:39 | 18.45672 | 82.37262 | 37883 ft | 461 kts | 241° |
| 2026-05-07 14:40 | 18.42526 | 82.31378 | 37878 ft | 461 kts | 241° |
| 2026-05-07 14:40 | 18.39381 | 82.25500 | 37884 ft | 460 kts | 241° |
| 2026-05-07 14:41 | 18.36234 | 82.19623 | 37875 ft | 460 kts | 241° |
| 2026-05-07 14:41 | 18.33107 | 82.13788 | 37880 ft | 460 kts | 241° |
| 2026-05-07 14:42 | 18.29955 | 82.07913 | 37871 ft | 461 kts | 241° |
| 2026-05-07 14:42 | 18.26797 | 82.02030 | 37862 ft | 461 kts | 241° |
| 2026-05-07 14:43 | 18.23639 | 81.96158 | 37870 ft | 461 kts | 241° |
| 2026-05-07 14:43 | 18.20477 | 81.90292 | 37859 ft | 461 kts | 241° |
| 2026-05-07 14:44 | 18.17312 | 81.84422 | 37861 ft | 461 kts | 241° |
| 2026-05-07 14:44 | 18.14147 | 81.78556 | 37856 ft | 461 kts | 241° |
| 2026-05-07 14:45 | 18.11002 | 81.72731 | 37857 ft | 461 kts | 241° |
| 2026-05-07 14:45 | 18.07829 | 81.66861 | 37855 ft | 461 kts | 241° |
| 2026-05-07 14:46 | 18.04657 | 81.60997 | 37844 ft | 461 kts | 241° |
| 2026-05-07 14:46 | 18.01484 | 81.55137 | 37844 ft | 461 kts | 241° |
| 2026-05-07 14:47 | 17.98305 | 81.49271 | 37841 ft | 461 kts | 241° |
| 2026-05-07 14:47 | 17.95129 | 81.43415 | 37829 ft | 461 kts | 241° |
| 2026-05-07 14:48 | 17.91954 | 81.37567 | 37830 ft | 461 kts | 241° |
| 2026-05-07 14:48 | 17.88772 | 81.31711 | 37812 ft | 461 kts | 241° |
| 2026-05-07 14:49 | 17.85733 | 81.26122 | 37821 ft | 462 kts | 241° |
| 2026-05-07 14:49 | 17.82525 | 81.20229 | 37820 ft | 463 kts | 241° |
| 2026-05-07 14:50 | 17.79445 | 81.14571 | 37808 ft | 464 kts | 241° |
| 2026-05-07 14:50 | 17.76245 | 81.08695 | 37811 ft | 464 kts | 241° |
| 2026-05-07 14:51 | 17.73034 | 81.02801 | 37811 ft | 465 kts | 241° |
| 2026-05-07 14:51 | 17.69822 | 80.96912 | 37808 ft | 466 kts | 241° |
| 2026-05-07 14:52 | 17.66601 | 80.91010 | 37809 ft | 466 kts | 241° |
| 2026-05-07 14:52 | 17.63375 | 80.85107 | 37810 ft | 466 kts | 241° |
| 2026-05-07 14:53 | 17.60152 | 80.79214 | 37810 ft | 466 kts | 241° |
| 2026-05-07 14:53 | 17.56929 | 80.73326 | 37812 ft | 465 kts | 241° |
| 2026-05-07 14:54 | 17.53725 | 80.67477 | 37810 ft | 465 kts | 241° |
| 2026-05-07 14:54 | 17.50504 | 80.61603 | 37807 ft | 465 kts | 240° |
| 2026-05-07 14:55 | 17.47276 | 80.55720 | 37814 ft | 465 kts | 240° |
| 2026-05-07 14:55 | 17.44051 | 80.49850 | 37818 ft | 465 kts | 240° |
| 2026-05-07 14:56 | 17.40818 | 80.43970 | 37820 ft | 465 kts | 240° |
| 2026-05-07 14:56 | 17.37587 | 80.38097 | 37815 ft | 466 kts | 240° |
| 2026-05-07 14:57 | 17.34353 | 80.32225 | 37817 ft | 466 kts | 240° |
| 2026-05-07 14:57 | 17.31113 | 80.26346 | 37820 ft | 466 kts | 240° |
| 2026-05-07 14:58 | 17.27871 | 80.20468 | 37822 ft | 466 kts | 240° |
| 2026-05-07 14:58 | 17.25224 | 80.14365 | 37824 ft | 465 kts | 254° |
| 2026-05-07 14:59 | 17.24148 | 80.07712 | 37816 ft | 465 kts | 268° |
| 2026-05-07 14:59 | 17.24131 | 80.00931 | 37831 ft | 466 kts | 269° |
| 2026-05-07 15:00 | 17.24165 | 79.94159 | 37833 ft | 466 kts | 269° |
| 2026-05-07 15:00 | 17.24166 | 79.90771 | 37712 ft | 468 kts | 269° |
| 2026-05-07 15:00 | 17.24156 | 79.87326 | 37057 ft | 474 kts | 269° |
| 2026-05-07 15:01 | 17.24139 | 79.83877 | 36362 ft | 473 kts | 269° |
| 2026-05-07 15:01 | 17.24117 | 79.80470 | 35614 ft | 475 kts | 269° |
| 2026-05-07 15:01 | 17.24093 | 79.76994 | 34736 ft | 481 kts | 269° |
| 2026-05-07 15:01 | 17.24067 | 79.73441 | 33797 ft | 480 kts | 269° |
| 2026-05-07 15:02 | 17.24042 | 79.70045 | 32776 ft | 465 kts | 269° |
| 2026-05-07 15:02 | 17.24020 | 79.66717 | 31857 ft | 451 kts | 269° |
| 2026-05-07 15:02 | 17.23999 | 79.63459 | 30943 ft | 446 kts | 269° |
| 2026-05-07 15:02 | 17.23975 | 79.60204 | 30177 ft | 449 kts | 269° |
| 2026-05-07 15:03 | 17.23950 | 79.56913 | 29427 ft | 454 kts | 269° |
| 2026-05-07 15:03 | 17.23925 | 79.53600 | 28680 ft | 457 kts | 269° |
| 2026-05-07 15:03 | 17.23898 | 79.50218 | 28024 ft | 473 kts | 269° |
| 2026-05-07 15:03 | 17.23870 | 79.46770 | 27327 ft | 474 kts | 269° |
| 2026-05-07 15:04 | 17.23843 | 79.43332 | 26645 ft | 470 kts | 269° |
| 2026-05-07 15:04 | 17.23815 | 79.39965 | 25994 ft | 467 kts | 269° |
| 2026-05-07 15:04 | 17.23787 | 79.36574 | 25328 ft | 466 kts | 269° |
| 2026-05-07 15:04 | 17.23759 | 79.33271 | 24641 ft | 441 kts | 269° |
| 2026-05-07 15:05 | 17.23732 | 79.30148 | 24029 ft | 418 kts | 269° |
| 2026-05-07 15:05 | 17.23705 | 79.27162 | 23470 ft | 404 kts | 270° |
| 2026-05-07 15:05 | 17.23679 | 79.24236 | 22814 ft | 403 kts | 270° |
| 2026-05-07 15:05 | 17.23652 | 79.21279 | 22224 ft | 412 kts | 270° |
| 2026-05-07 15:06 | 17.23625 | 79.18252 | 21654 ft | 420 kts | 269° |
| 2026-05-07 15:06 | 17.23596 | 79.15165 | 21063 ft | 426 kts | 269° |
| 2026-05-07 15:06 | 17.23565 | 79.12075 | 20458 ft | 419 kts | 269° |
| 2026-05-07 15:06 | 17.23399 | 79.09104 | 19881 ft | 397 kts | 263° |
| 2026-05-07 15:07 | 17.22969 | 79.06322 | 19347 ft | 379 kts | 260° |
| 2026-05-07 15:07 | 17.22522 | 79.03642 | 18841 ft | 371 kts | 261° |
| 2026-05-07 15:07 | 17.22082 | 79.00958 | 18337 ft | 383 kts | 261° |
| 2026-05-07 15:07 | 17.21616 | 78.98081 | 17755 ft | 413 kts | 261° |
| 2026-05-07 15:08 | 17.21143 | 78.95149 | 17090 ft | 397 kts | 261° |
| 2026-05-07 15:08 | 17.20704 | 78.92425 | 16526 ft | 372 kts | 261° |
| 2026-05-07 15:08 | 17.20289 | 78.89838 | 16027 ft | 354 kts | 261° |
| 2026-05-07 15:08 | 17.19878 | 78.87269 | 15562 ft | 363 kts | 261° |
| 2026-05-07 15:09 | 17.19451 | 78.84599 | 15125 ft | 383 kts | 261° |
| 2026-05-07 15:09 | 17.19004 | 78.81806 | 14989 ft | 392 kts | 261° |
| 2026-05-07 15:09 | 17.18552 | 78.78987 | 14901 ft | 394 kts | 261° |
| 2026-05-07 15:09 | 17.18097 | 78.76159 | 14902 ft | 395 kts | 261° |
| 2026-05-07 15:10 | 17.17639 | 78.73318 | 14903 ft | 395 kts | 261° |
| 2026-05-07 15:10 | 17.17187 | 78.70511 | 14901 ft | 388 kts | 261° |
| 2026-05-07 15:10 | 17.16732 | 78.67683 | 14929 ft | 398 kts | 261° |
| 2026-05-07 15:10 | 17.16280 | 78.64884 | 14923 ft | 396 kts | 261° |
| 2026-05-07 15:11 | 17.15827 | 78.62075 | 14917 ft | 386 kts | 261° |
| 2026-05-07 15:11 | 17.15389 | 78.59370 | 14913 ft | 368 kts | 261° |
| 2026-05-07 15:11 | 17.14973 | 78.56796 | 14910 ft | 351 kts | 261° |
| 2026-05-07 15:11 | 17.14578 | 78.54324 | 14846 ft | 338 kts | 262° |
| 2026-05-07 15:12 | 17.14383 | 78.51971 | 14651 ft | 314 kts | 269° |
| 2026-05-07 15:12 | 17.14353 | 78.49741 | 14304 ft | 300 kts | 271° |
| 2026-05-07 15:12 | 17.14350 | 78.47557 | 13499 ft | 304 kts | 271° |
| 2026-05-07 15:12 | 17.14339 | 78.45291 | 12152 ft | 321 kts | 270° |
| 2026-05-07 15:13 | 17.14313 | 78.42891 | 10708 ft | 339 kts | 270° |
| 2026-05-07 15:13 | 17.14273 | 78.40385 | 9151 ft | 354 kts | 269° |
| 2026-05-07 15:13 | 17.14223 | 78.37851 | 8518 ft | 339 kts | 269° |
| 2026-05-07 15:13 | 17.14174 | 78.35528 | 8360 ft | 310 kts | 269° |
| 2026-05-07 15:14 | 17.14128 | 78.33324 | 8021 ft | 295 kts | 269° |
| 2026-05-07 15:14 | 17.14085 | 78.31236 | 7650 ft | 275 kts | 269° |
| 2026-05-07 15:14 | 17.14046 | 78.29344 | 7491 ft | 249 kts | 269° |
| 2026-05-07 15:14 | 17.14010 | 78.27614 | 7392 ft | 237 kts | 269° |
| 2026-05-07 15:15 | 17.13974 | 78.25879 | 7326 ft | 237 kts | 269° |
| 2026-05-07 15:15 | 17.13939 | 78.24191 | 7244 ft | 227 kts | 270° |
| 2026-05-07 15:15 | 17.14224 | 78.22588 | 6661 ft | 227 kts | 302° |
| 2026-05-07 15:15 | 17.15313 | 78.21491 | 6093 ft | 214 kts | 340° |
| 2026-05-07 15:16 | 17.16687 | 78.21173 | 5771 ft | 194 kts | 1° |
| 2026-05-07 15:16 | 17.18034 | 78.21188 | 5655 ft | 193 kts | 5° |
| 2026-05-07 15:16 | 17.19377 | 78.21241 | 5580 ft | 193 kts | 6° |
| 2026-05-07 15:16 | 17.20642 | 78.21567 | 5447 ft | 182 kts | 33° |
| 2026-05-07 15:17 | 17.21582 | 78.22373 | 5369 ft | 170 kts | 49° |
| 2026-05-07 15:17 | 17.22337 | 78.23308 | 5143 ft | 169 kts | 66° |
| 2026-05-07 15:17 | 17.22513 | 78.24461 | 5011 ft | 162 kts | 86° |
| 2026-05-07 15:17 | 17.22595 | 78.25648 | 4777 ft | 165 kts | 86° |
| 2026-05-07 15:18 | 17.22648 | 78.26855 | 4571 ft | 169 kts | 87° |
| 2026-05-07 15:18 | 17.22674 | 78.28047 | 4378 ft | 157 kts | 88° |
| 2026-05-07 15:18 | 17.22690 | 78.29146 | 4168 ft | 152 kts | 87° |
| 2026-05-07 15:18 | 17.22706 | 78.30248 | 3974 ft | 151 kts | 88° |
| 2026-05-07 15:19 | 17.22721 | 78.31336 | 3784 ft | 151 kts | 88° |
| 2026-05-07 15:19 | 17.22737 | 78.32452 | 3601 ft | 153 kts | 87° |
| 2026-05-07 15:19 | 17.22752 | 78.33550 | 3412 ft | 153 kts | 86° |
| 2026-05-07 15:19 | 17.22758 | 78.34297 | 3267 ft | 151 kts | 88° |
| 2026-05-07 15:20 | 17.22778 | 78.35746 | 3019 ft | 150 kts | 88° |
| 2026-05-07 15:20 | 17.22798 | 78.36842 | 2874 ft | 151 kts | 85° |
| 2026-05-07 15:20 | 17.22813 | 78.37947 | 2657 ft | 151 kts | 87° |
| 2026-05-07 15:20 | 17.22826 | 78.39047 | 2438 ft | 150 kts | 89° |
| 2026-05-07 15:21 | 17.22845 | 78.40125 | 2275 ft | 144 kts | 91° |
| 2026-05-07 15:21 | 17.22853 | 78.40823 | 2109 ft | 141 kts | 91° |
| 2026-05-07 15:21 | 17.22861 | 78.42103 | 1986 ft | 115 kts | 89° |
| 2026-05-07 15:21 | 17.22876 | 78.42779 | 1984 ft | 71 kts | 89° |
| 2026-05-07 15:22 | 17.22881 | 78.43176 | 1985 ft | 49 kts | 89° |
| 2026-05-07 15:22 | 17.22916 | 78.43386 | 1987 ft | 41 kts | 69° |
| 2026-05-07 15:22 | 17.22990 | 78.43525 | 1989 ft | 12 kts | 59° |
| 2026-05-07 15:22 | 17.23059 | 78.43590 | 1988 ft | 8 kts | 24° |
| 2026-05-07 15:23 | 17.23085 | 78.43626 | 1985 ft | 14 kts | 67° |
| 2026-05-07 15:23 | 17.23145 | 78.43697 | 1987 ft | 10 kts | 11° |
| 2026-05-07 15:23 | 17.23218 | 78.43697 | 1987 ft | 10 kts | 357° |
| 2026-05-07 15:23 | 17.23251 | 78.43638 | 1985 ft | 11 kts | 270° |
| 2026-05-07 15:24 | 17.23251 | 78.43563 | 1984 ft | 10 kts | 269° |
| 2026-05-07 15:24 | 17.23250 | 78.43492 | 1985 ft | 10 kts | 269° |
| 2026-05-07 15:24 | 17.23249 | 78.43421 | 1984 ft | 10 kts | 269° |
| 2026-05-07 15:24 | 17.23248 | 78.43347 | 1984 ft | 10 kts | 269° |
| 2026-05-07 15:25 | 17.23246 | 78.43276 | 1984 ft | 10 kts | 269° |
| 2026-05-07 15:25 | 17.23246 | 78.43204 | 1984 ft | 10 kts | 269° |
| 2026-05-07 15:25 | 17.23245 | 78.43130 | 1984 ft | 10 kts | 269° |
| 2026-05-07 15:25 | 17.23244 | 78.43057 | 1984 ft | 10 kts | 269° |
| 2026-05-07 15:26 | 17.23243 | 78.42983 | 1984 ft | 10 kts | 269° |
| 2026-05-07 15:26 | 17.23242 | 78.42909 | 1986 ft | 10 kts | 269° |
| 2026-05-07 15:26 | 17.23241 | 78.42835 | 1988 ft | 10 kts | 269° |
| 2026-05-07 15:26 | 17.23239 | 78.42761 | 1988 ft | 10 kts | 269° |
| 2026-05-07 15:27 | 17.23239 | 78.42687 | 1988 ft | 10 kts | 270° |
| 2026-05-07 15:27 | 17.23238 | 78.42613 | 1986 ft | 10 kts | 269° |
| 2026-05-07 15:27 | 17.23236 | 78.42539 | 1985 ft | 10 kts | 269° |
| 2026-05-07 15:27 | 17.23235 | 78.42464 | 1985 ft | 10 kts | 269° |
| 2026-05-07 15:28 | 17.23234 | 78.42390 | 1986 ft | 10 kts | 269° |
| 2026-05-07 15:28 | 17.23233 | 78.42315 | 1985 ft | 10 kts | 269° |
| 2026-05-07 15:28 | 17.23231 | 78.42241 | 1985 ft | 10 kts | 269° |
| 2026-05-07 15:28 | 17.23231 | 78.42164 | 1984 ft | 11 kts | 269° |
| 2026-05-07 15:29 | 17.23230 | 78.42095 | 1984 ft | 6 kts | 269° |
| 2026-05-07 15:29 | 17.23260 | 78.42066 | 1988 ft | 7 kts | 332° |
| 2026-05-07 15:29 | 17.23304 | 78.42054 | 1985 ft | 6 kts | 354° |
| 2026-05-07 15:29 | 17.23347 | 78.42051 | 1987 ft | 6 kts | 358° |
| 2026-05-07 15:30 | 17.23383 | 78.42050 | 1987 ft | 5 kts | 356° |
| 2026-05-07 15:30 | 17.23403 | 78.42050 | 1988 ft | 2 kts | 0° |
| 2026-05-07 15:30 | 17.23405 | 78.42050 | 1988 ft | 0 kts | 0° |